23:28
Airports
History
Links
Donate
Help keep this website running!
PayPal
Bitcoin
This page is community maintained. The information is intended for PC simulator navigation or reference.
Always use approved charts for navigation.
LEFM
FUENTEMILANOS
FUENTEMILANOS (LEFM)
Segovia, Castille and Leon, Spain (40006)
(U)
Lat/Lng:40° 53' 16.94" N / 4° 14' 20.25" W
40.888039 / -4.238957
Elevation:3284'ft / 1001mMSL
ID / ICAO:LEFM
Runways:1
Longest:16-34
Asphalt 998m / 3,274ft
Nearby Weather20:00 GMT 2017-10-20
Nearby weather at LEVS, Cuatro Vientos located 42.9 nautical miles from LEFM
Altimeter: 30.21
Visibility: 6.2 statute miles
Wind: 3 knots (from 170°)
Temp: 18°c / 64°f
Humidity: 77.5%

METAR: LEVS 202000Z 17003KT CAVOK 18/14 Q1023

(Powered by phpweather)
Airport Radio Frequencies
Tower: 123.4, 123.5
Nearby VORs <50NM
Nearby NDBs
Runway 16 / 34
Dimensions:997.8 x 18m 3274' x 59'ft
Surface:Asphalt
Runway 16 [A]Runway 34 [B]
Heading:151°TH 331°TH
Lat:
Lng:
40° 53' 31.11"N
4° 14' 30.42"W
40° 53' 2.77"N
4° 14' 10.07"W
User Notes and Comments
40° 53' 16.94" N / 4° 14' 20.25" W
Distance To
Airport ID:
Nearby Airports
(C) Cuatro Vientos 42.9 NM
LEVS ( WX ) SE 146°
(C) Barajas 45.0 NM
LEMD ( WX ) SE 127°
(U) MOJADOS 46.9 NM
LE83 NNW 328°
(C) Getafe 49.1 NM
LEGT ( WX ) SE 146°
(C) Torrejon 49.6 NM
LETO ( WX ) ESE 123°
(U) ROBLEDILLO DE MOHERNANDO 51.9 NM
LERM E 91°
(C) EL TIETAR 52.9 NM
LETI SSW 213°
VFR Chart
Flight Planning at SkyVector.com